createdAt,value
2023-12-16T00:01:07.319Z,19.85
2023-12-16T00:04:09.540Z,17.80
2023-12-16T00:07:12.166Z,15.00
2023-12-16T00:10:14.349Z,15.25
2023-12-16T00:13:16.987Z,16.92
2023-12-16T00:16:19.276Z,15.60
2023-12-16T00:19:21.486Z,16.10
2023-12-16T00:22:23.681Z,20.35
2023-12-16T00:25:25.860Z,17.92
2023-12-16T00:28:28.288Z,21.38
2023-12-16T00:31:31.607Z,20.17
2023-12-16T00:34:34.697Z,21.00
2023-12-16T00:37:37.432Z,18.83
2023-12-16T00:40:39.931Z,22.17
2023-12-16T00:43:42.002Z,18.23
2023-12-16T00:46:44.045Z,21.73
2023-12-16T00:49:46.415Z,18.30
2023-12-16T00:52:48.538Z,18.65
2023-12-16T00:55:50.571Z,18.17
2023-12-16T00:58:53.038Z,19.30
2023-12-16T01:01:55.274Z,19.30
2023-12-16T01:04:57.412Z,18.10
2023-12-16T01:07:59.508Z,15.10
2023-12-16T01:11:01.605Z,16.48
2023-12-16T01:14:03.748Z,15.63
2023-12-16T01:17:05.900Z,17.80
2023-12-16T01:20:08.438Z,18.08
2023-12-16T01:23:10.564Z,17.85
2023-12-16T01:26:12.700Z,18.85
2023-12-16T01:29:14.802Z,15.15
2023-12-16T01:32:16.942Z,15.85
2023-12-16T01:35:19.031Z,16.83
2023-12-16T01:38:21.164Z,15.00
2023-12-16T01:41:23.339Z,16.08
2023-12-16T01:44:25.399Z,15.60
2023-12-16T01:47:28.200Z,17.57
2023-12-16T01:50:30.794Z,16.63
2023-12-16T01:53:33.617Z,15.45
2023-12-16T01:56:36.192Z,15.98
2023-12-16T01:59:38.316Z,15.80
2023-12-16T02:02:41.033Z,13.75
2023-12-16T02:05:43.220Z,12.23
2023-12-16T02:08:45.984Z,10.97
2023-12-16T02:11:48.134Z,12.55
2023-12-16T02:14:50.200Z,10.32
2023-12-16T02:17:52.231Z,10.13
2023-12-16T02:20:54.353Z,7.78
2023-12-16T02:23:56.390Z,9.10
2023-12-16T02:26:58.657Z,6.90
2023-12-16T02:30:00.699Z,8.38
2023-12-16T02:33:02.852Z,8.63
2023-12-16T02:36:05.188Z,7.00
2023-12-16T02:39:07.227Z,6.90
2023-12-16T02:42:09.392Z,7.93
2023-12-16T02:45:11.473Z,5.93
2023-12-16T02:48:13.705Z,6.63
2023-12-16T02:51:22.152Z,5.60
2023-12-16T02:54:24.227Z,6.43
2023-12-16T02:57:26.252Z,7.57
2023-12-16T03:00:28.292Z,7.45
2023-12-16T03:03:30.978Z,6.80
2023-12-16T03:06:33.215Z,7.28
2023-12-16T03:09:35.291Z,5.97
2023-12-16T03:12:37.906Z,6.90
2023-12-16T03:15:39.985Z,7.88
2023-12-16T03:18:42.092Z,6.97
2023-12-16T03:21:44.717Z,6.45
2023-12-16T03:24:47.580Z,7.32
2023-12-16T03:27:49.693Z,5.97
2023-12-16T03:30:51.846Z,6.82
2023-12-16T03:33:54.698Z,7.25
2023-12-16T03:36:56.914Z,7.22
2023-12-16T03:39:59.007Z,4.90
2023-12-16T03:43:01.154Z,6.47
2023-12-16T03:46:03.482Z,6.35
2023-12-16T03:49:05.600Z,6.50
2023-12-16T03:52:08.702Z,6.38
2023-12-16T03:55:10.910Z,6.03
2023-12-16T03:58:12.986Z,6.25
2023-12-16T04:01:15.400Z,5.18
2023-12-16T04:04:17.600Z,5.20
2023-12-16T04:07:19.763Z,6.55
2023-12-16T04:10:22.105Z,6.10
2023-12-16T04:13:24.238Z,6.03
2023-12-16T04:16:26.807Z,6.18
2023-12-16T04:19:28.951Z,5.47
2023-12-16T04:22:31.919Z,5.25
2023-12-16T04:25:34.118Z,5.25
2023-12-16T04:28:36.276Z,6.68
2023-12-16T04:31:39.810Z,6.38
2023-12-16T04:34:41.949Z,6.53
2023-12-16T04:37:43.964Z,6.88
2023-12-16T04:40:46.075Z,5.50
2023-12-16T04:43:48.492Z,6.88
2023-12-16T04:46:50.611Z,5.57
2023-12-16T04:49:52.868Z,5.77
2023-12-16T04:52:54.934Z,7.55
2023-12-16T04:55:57.073Z,8.05
2023-12-16T04:58:59.175Z,7.13
2023-12-16T05:02:01.613Z,8.65
2023-12-16T05:05:03.767Z,6.32
2023-12-16T05:08:06.022Z,6.80
2023-12-16T05:11:08.863Z,6.37
2023-12-16T05:14:10.924Z,7.30
2023-12-16T05:17:12.963Z,14.95
2023-12-16T05:20:15.987Z,15.43
2023-12-16T05:23:18.107Z,13.35
2023-12-16T05:26:21.788Z,11.98
2023-12-16T05:29:23.836Z,12.68
2023-12-16T05:32:26.563Z,12.40
2023-12-16T05:35:28.755Z,15.07
2023-12-16T05:38:30.902Z,16.13
2023-12-16T05:41:33.461Z,14.87
2023-12-16T05:44:35.573Z,16.15
2023-12-16T05:47:37.934Z,15.57
2023-12-16T05:50:40.243Z,14.77
2023-12-16T05:53:42.318Z,14.25
2023-12-16T05:56:44.406Z,15.00
2023-12-16T05:59:46.491Z,15.82
2023-12-16T06:02:48.649Z,16.48
2023-12-16T06:05:50.838Z,17.08
2023-12-16T06:08:54.851Z,19.98
2023-12-16T06:11:57.941Z,19.97
2023-12-16T06:15:00.015Z,20.90
2023-12-16T06:18:05.477Z,19.70
2023-12-16T06:21:07.643Z,20.50
2023-12-16T06:24:11.645Z,21.63
2023-12-16T06:27:13.757Z,22.85
2023-12-16T06:30:15.916Z,18.13
2023-12-16T06:33:18.160Z,19.60
2023-12-16T06:36:20.276Z,20.45
2023-12-16T06:39:22.408Z,17.83
2023-12-16T06:42:24.573Z,16.20
2023-12-16T06:45:26.602Z,16.30
2023-12-16T06:48:28.984Z,18.55
2023-12-16T06:51:31.123Z,18.33
2023-12-16T06:54:33.252Z,19.92
2023-12-16T06:57:35.442Z,31.02
2023-12-16T07:00:37.599Z,29.02
2023-12-16T07:03:39.826Z,24.25
2023-12-16T07:06:42.235Z,27.05
2023-12-16T07:09:44.862Z,25.85
2023-12-16T07:12:46.973Z,19.03
2023-12-16T07:15:49.176Z,20.52
2023-12-16T07:18:51.308Z,19.17
2023-12-16T07:21:53.448Z,18.40
2023-12-16T07:24:55.589Z,17.65
2023-12-16T07:27:57.801Z,18.13
2023-12-16T07:31:00.531Z,16.85
2023-12-16T07:34:02.934Z,16.35
2023-12-16T07:37:05.214Z,15.18
2023-12-16T07:40:09.956Z,14.07
2023-12-16T07:43:12.176Z,11.97
2023-12-16T07:46:14.307Z,12.32
2023-12-16T07:49:17.825Z,12.05
2023-12-16T07:52:20.446Z,14.30
2023-12-16T07:55:22.675Z,14.68
2023-12-16T07:58:24.838Z,16.15
2023-12-16T08:01:27.280Z,18.27
2023-12-16T08:04:29.479Z,18.23
2023-12-16T08:07:31.696Z,17.25
2023-12-16T08:10:34.022Z,17.35
2023-12-16T08:13:36.879Z,16.87
2023-12-16T08:16:39.067Z,18.13
2023-12-16T08:19:41.259Z,16.95
2023-12-16T08:22:43.350Z,16.33
2023-12-16T08:25:46.100Z,20.52
2023-12-16T08:28:48.244Z,25.02
2023-12-16T08:31:50.347Z,25.50
2023-12-16T08:34:52.587Z,23.52
2023-12-16T08:37:56.374Z,23.30
2023-12-16T08:40:58.985Z,23.63
2023-12-16T08:44:01.051Z,22.20
2023-12-16T08:47:04.872Z,23.83
2023-12-16T08:50:07.677Z,20.65
2023-12-16T08:53:12.615Z,22.77
2023-12-16T08:56:14.873Z,20.67
2023-12-16T08:59:18.384Z,23.45
2023-12-16T09:02:22.500Z,19.17
2023-12-16T09:05:28.216Z,18.23
2023-12-16T09:08:31.370Z,19.50
2023-12-16T09:11:33.422Z,19.52
2023-12-16T09:14:35.761Z,20.50
2023-12-16T09:17:38.031Z,18.83
2023-12-16T09:20:40.442Z,19.00
2023-12-16T09:23:42.495Z,18.65
2023-12-16T09:26:44.805Z,17.05
2023-12-16T09:29:46.860Z,15.23
2023-12-16T09:32:49.323Z,18.80
2023-12-16T09:35:51.487Z,16.48
2023-12-16T09:38:59.967Z,18.08
2023-12-16T09:42:04.985Z,17.33
2023-12-16T09:45:07.916Z,21.40
2023-12-16T09:48:10.250Z,18.02
2023-12-16T09:51:12.413Z,19.85
2023-12-16T09:54:17.309Z,19.95
2023-12-16T09:57:20.107Z,20.33
2023-12-16T10:00:22.456Z,19.03
2023-12-16T10:03:24.564Z,17.70
2023-12-16T10:06:26.727Z,21.77
2023-12-16T10:09:28.850Z,34.08
2023-12-16T10:12:37.105Z,20.30
2023-12-16T10:15:39.395Z,20.87
2023-12-16T10:18:41.545Z,19.25
2023-12-16T10:21:43.842Z,18.65
2023-12-16T10:24:46.547Z,23.73
2023-12-16T10:27:49.753Z,23.50
2023-12-16T10:30:51.979Z,23.53
2023-12-16T10:33:54.174Z,23.42
2023-12-16T10:37:09.208Z,22.42
2023-12-16T10:40:11.368Z,20.48
2023-12-16T10:43:13.537Z,20.17
2023-12-16T10:46:18.280Z,17.77
2023-12-16T10:49:21.839Z,17.92
2023-12-16T10:52:24.220Z,19.35
2023-12-16T10:55:30.212Z,20.02
2023-12-16T10:58:34.917Z,18.60
2023-12-16T11:01:38.950Z,15.77
2023-12-16T11:04:42.478Z,16.63
2023-12-16T11:07:44.966Z,17.90
2023-12-16T11:10:47.154Z,14.23
2023-12-16T11:13:51.464Z,15.53
2023-12-16T11:16:53.637Z,13.57
2023-12-16T11:20:05.005Z,13.32
2023-12-16T11:23:07.242Z,13.63
2023-12-16T11:26:11.114Z,13.02
2023-12-16T11:29:13.489Z,11.37
2023-12-16T11:32:15.843Z,10.43
2023-12-16T11:35:38.439Z,9.35
2023-12-16T11:38:44.593Z,9.02
2023-12-16T11:41:49.561Z,7.78
2023-12-16T11:44:54.964Z,8.10
2023-12-16T11:47:57.852Z,16.33
2023-12-16T11:50:59.975Z,9.20
2023-12-16T11:54:03.110Z,7.45
2023-12-16T11:57:05.182Z,6.53
2023-12-16T12:00:07.710Z,6.77
2023-12-16T12:03:09.968Z,7.27
2023-12-16T12:06:12.085Z,7.72
2023-12-16T12:09:15.844Z,5.72
2023-12-16T12:12:18.108Z,7.40
2023-12-16T12:15:21.035Z,7.37
2023-12-16T12:18:23.719Z,6.83
2023-12-16T12:21:25.851Z,6.50
2023-12-16T12:24:27.958Z,7.20
2023-12-16T12:27:30.892Z,7.85
2023-12-16T12:30:32.974Z,6.53
2023-12-16T12:33:35.904Z,8.40
2023-12-16T12:36:38.129Z,7.20
2023-12-16T12:39:42.192Z,5.75
2023-12-16T12:42:47.561Z,6.40
2023-12-16T12:45:50.636Z,7.50
2023-12-16T12:48:54.900Z,7.97
2023-12-16T12:51:57.101Z,7.70
2023-12-16T12:54:59.160Z,8.27
2023-12-16T12:58:07.602Z,7.40
2023-12-16T13:01:17.167Z,8.33
2023-12-16T13:04:19.426Z,9.77
2023-12-16T13:07:21.547Z,10.75
2023-12-16T13:10:23.657Z,9.85
2023-12-16T13:13:25.745Z,10.02
2023-12-16T13:16:28.562Z,9.27
2023-12-16T13:19:30.798Z,10.90
2023-12-16T13:22:35.787Z,12.02
2023-12-16T13:25:37.830Z,11.02
2023-12-16T13:28:41.740Z,13.75
2023-12-16T13:31:43.784Z,11.30
2023-12-16T13:34:45.922Z,13.20
2023-12-16T13:37:47.997Z,12.73
2023-12-16T13:40:52.633Z,11.90
2023-12-16T13:43:55.397Z,10.90
2023-12-16T13:46:57.520Z,10.70
2023-12-16T13:49:59.989Z,10.90
2023-12-16T13:53:02.057Z,9.10
2023-12-16T13:56:04.287Z,11.18
2023-12-16T13:59:06.341Z,9.87
2023-12-16T14:02:08.440Z,12.43
2023-12-16T14:05:11.196Z,13.05
2023-12-16T14:08:13.336Z,13.27
2023-12-16T14:11:15.544Z,12.25
2023-12-16T14:14:17.627Z,11.70
2023-12-16T14:17:19.860Z,13.13
2023-12-16T14:20:23.094Z,10.80
2023-12-16T14:23:25.163Z,12.90
2023-12-16T14:26:27.285Z,14.02
2023-12-16T14:29:29.678Z,14.97
2023-12-16T14:32:32.095Z,14.52
2023-12-16T14:35:36.989Z,20.00
2023-12-16T14:38:40.463Z,17.02
2023-12-16T14:41:42.629Z,20.55
2023-12-16T14:44:44.805Z,25.30
2023-12-16T14:47:47.132Z,27.38
2023-12-16T14:50:49.863Z,21.83
2023-12-16T14:53:51.973Z,23.10
2023-12-16T14:56:54.043Z,22.05
2023-12-16T14:59:57.132Z,23.03
2023-12-16T15:02:59.430Z,21.70
2023-12-16T15:06:12.716Z,20.73
2023-12-16T15:09:19.926Z,24.25
2023-12-16T15:12:22.236Z,23.83
2023-12-16T15:15:25.862Z,21.13
2023-12-16T15:18:28.072Z,17.90
2023-12-16T15:21:31.261Z,15.93
2023-12-16T15:24:33.332Z,16.95
2023-12-16T15:27:35.379Z,16.20
2023-12-16T15:30:37.500Z,18.27
2023-12-16T15:33:39.864Z,15.93
2023-12-16T15:36:42.351Z,18.30
2023-12-16T15:39:45.840Z,21.27
2023-12-16T15:42:47.957Z,17.35
2023-12-16T15:45:50.084Z,17.38
2023-12-16T15:48:52.341Z,15.50
2023-12-16T15:51:54.611Z,17.17
2023-12-16T15:54:56.733Z,19.42
2023-12-16T15:57:58.888Z,18.27
2023-12-16T16:01:01.024Z,18.67
2023-12-16T16:04:05.476Z,17.15
2023-12-16T16:07:07.642Z,19.50
2023-12-16T16:10:09.767Z,20.38
2023-12-16T16:13:13.764Z,24.83
2023-12-16T16:16:15.863Z,20.90
2023-12-16T16:19:18.124Z,19.83
2023-12-16T16:22:20.279Z,14.77
2023-12-16T16:25:22.505Z,15.00
2023-12-16T16:28:24.593Z,17.25
2023-12-16T16:31:26.746Z,14.27
2023-12-16T16:34:28.997Z,20.92
2023-12-16T16:37:32.305Z,23.42
2023-12-16T16:40:35.172Z,27.40
2023-12-16T16:43:37.244Z,28.40
2023-12-16T16:46:39.327Z,23.08
2023-12-16T16:49:42.416Z,19.25
2023-12-16T16:52:44.535Z,20.43
2023-12-16T16:55:46.620Z,28.42
2023-12-16T16:58:48.787Z,32.80
2023-12-16T17:01:51.278Z,38.63
2023-12-16T17:04:53.885Z,40.38
2023-12-16T17:07:56.026Z,31.60
2023-12-16T17:11:00.473Z,27.15
2023-12-16T17:14:02.692Z,29.05
2023-12-16T17:17:04.856Z,38.00
2023-12-16T17:20:10.969Z,30.45
2023-12-16T17:23:13.091Z,29.97
2023-12-16T17:26:15.852Z,47.50
2023-12-16T17:29:19.018Z,51.70
2023-12-16T17:32:21.256Z,55.73
2023-12-16T17:35:23.438Z,70.13
2023-12-16T17:38:25.566Z,58.17
2023-12-16T17:41:27.627Z,53.45
2023-12-16T17:44:29.686Z,48.58
2023-12-16T17:47:31.780Z,40.88
2023-12-16T17:50:34.838Z,35.28
2023-12-16T17:53:37.002Z,32.87
2023-12-16T17:56:39.217Z,31.23
2023-12-16T17:59:41.513Z,25.92
2023-12-16T18:02:43.902Z,26.63
2023-12-16T18:05:46.107Z,25.17
2023-12-16T18:08:48.289Z,23.75
2023-12-16T18:11:50.661Z,23.55
2023-12-16T18:14:52.893Z,22.00
2023-12-16T18:17:55.176Z,21.27
2023-12-16T18:21:00.959Z,23.35
2023-12-16T18:24:05.667Z,26.17
2023-12-16T18:27:07.822Z,25.85
2023-12-16T18:30:10.547Z,26.25
2023-12-16T18:33:13.036Z,26.87
2023-12-16T18:36:15.285Z,30.02
2023-12-16T18:39:19.236Z,27.90
2023-12-16T18:42:21.449Z,29.73
2023-12-16T18:45:23.555Z,29.35
2023-12-16T18:48:25.828Z,25.10
2023-12-16T18:51:28.086Z,23.70
2023-12-16T18:54:30.158Z,22.50
2023-12-16T18:57:32.235Z,22.92
2023-12-16T19:00:34.406Z,24.25
2023-12-16T19:03:37.215Z,26.80
2023-12-16T19:06:39.389Z,23.27
2023-12-16T19:09:44.093Z,25.52
2023-12-16T19:12:46.297Z,25.38
2023-12-16T19:15:48.364Z,27.23
2023-12-16T19:18:50.647Z,27.83
2023-12-16T19:21:52.804Z,26.02
2023-12-16T19:24:54.987Z,27.23
2023-12-16T19:27:57.082Z,28.13
2023-12-16T19:30:59.211Z,35.97
2023-12-16T19:34:01.443Z,40.93
2023-12-16T19:37:03.631Z,44.70
2023-12-16T19:40:06.046Z,40.22
2023-12-16T19:43:08.107Z,35.72
2023-12-16T19:46:12.049Z,34.42
2023-12-16T19:49:14.557Z,34.00
2023-12-16T19:52:16.700Z,30.38
2023-12-16T19:55:18.830Z,32.07
2023-12-16T19:58:20.982Z,32.28
2023-12-16T20:01:23.317Z,28.45
2023-12-16T20:04:25.470Z,28.33
2023-12-16T20:07:27.545Z,25.85
2023-12-16T20:10:29.827Z,28.17
2023-12-16T20:13:32.479Z,30.33
2023-12-16T20:16:34.638Z,29.70
2023-12-16T20:19:37.160Z,27.48
2023-12-16T20:22:39.405Z,25.77
2023-12-16T20:25:41.521Z,29.70
2023-12-16T20:28:43.627Z,28.27
2023-12-16T20:31:45.786Z,26.23
2023-12-16T20:34:47.993Z,25.87
2023-12-16T20:38:05.275Z,26.83
2023-12-16T20:41:09.051Z,26.58
2023-12-16T20:44:12.511Z,26.08
2023-12-16T20:47:14.698Z,22.30
2023-12-16T20:50:16.895Z,23.48
2023-12-16T20:53:19.038Z,24.33
2023-12-16T20:56:21.168Z,26.90
2023-12-16T20:59:23.337Z,24.75
2023-12-16T21:02:25.654Z,25.42
2023-12-16T21:05:27.812Z,25.50
2023-12-16T21:08:29.994Z,27.20
2023-12-16T21:11:32.321Z,28.33
2023-12-16T21:14:34.431Z,29.83
2023-12-16T21:17:37.237Z,29.35
2023-12-16T21:20:39.485Z,32.20
2023-12-16T21:23:41.570Z,28.85
2023-12-16T21:26:45.487Z,28.27
2023-12-16T21:29:47.598Z,30.15
2023-12-16T21:32:51.221Z,26.73
2023-12-16T21:35:53.544Z,26.30
2023-12-16T21:38:56.270Z,25.77
2023-12-16T21:41:59.096Z,26.15
2023-12-16T21:45:01.254Z,24.33
2023-12-16T21:48:03.500Z,23.55
2023-12-16T21:51:13.086Z,25.42
2023-12-16T21:54:15.400Z,24.50
2023-12-16T21:57:17.698Z,19.97
2023-12-16T22:00:19.981Z,26.40
2023-12-16T22:03:22.232Z,22.40
2023-12-16T22:06:24.414Z,24.90
2023-12-16T22:09:26.628Z,18.75
2023-12-16T22:12:28.824Z,23.70
2023-12-16T22:15:30.964Z,24.85
2023-12-16T22:18:33.440Z,28.17
2023-12-16T22:21:35.570Z,28.38
2023-12-16T22:24:37.628Z,27.55
2023-12-16T22:27:40.128Z,26.77
2023-12-16T22:30:42.656Z,26.58
2023-12-16T22:33:45.104Z,26.42
2023-12-16T22:36:47.294Z,30.73
2023-12-16T22:39:49.448Z,25.83
2023-12-16T22:42:51.536Z,29.30
2023-12-16T22:45:54.279Z,24.98
2023-12-16T22:48:56.555Z,25.13
2023-12-16T22:51:58.770Z,26.30
2023-12-16T22:55:01.602Z,26.65
2023-12-16T22:58:03.718Z,23.37
2023-12-16T23:01:09.105Z,26.45
2023-12-16T23:04:11.609Z,27.13
2023-12-16T23:07:13.746Z,26.87
2023-12-16T23:10:24.609Z,26.02
2023-12-16T23:13:28.101Z,27.33
2023-12-16T23:16:30.212Z,27.30
2023-12-16T23:19:32.327Z,25.02
2023-12-16T23:22:34.574Z,17.50
2023-12-16T23:25:36.634Z,23.77
2023-12-16T23:28:38.829Z,24.53
2023-12-16T23:31:40.985Z,19.67
2023-12-16T23:34:43.502Z,22.98
2023-12-16T23:37:46.370Z,19.77
2023-12-16T23:40:50.850Z,22.83
2023-12-16T23:43:52.995Z,22.75
2023-12-16T23:46:55.110Z,22.55
2023-12-16T23:49:57.215Z,22.55
2023-12-16T23:52:59.337Z,22.95
2023-12-16T23:56:08.222Z,20.25
2023-12-16T23:59:10.310Z,19.37
